Airfield :
LOGIN :

Register | Disclaimer

   EN    FR    IT 

 










Legend :    VFR   Marginal VFR   IFR   Intensive IFR   Very Intensive IFR
Visi :
Ceiling :
>= 8 km
>= 3000ft
5 to 8 km
1000 to 3000 ft
1500m to 5 km
500 to 1000 ft
800 to 1500m
200 to 500 ft
< 800m
< 200 ft
Symbols :   Thunderstorms  Fog  Heavy snow  Heavy precipitations  Wind > 20 kt
SIGMETs :     Misc.  Thunderstorms  Icing  Turbulence  Mountain Waves  Volcanic Ashes







- Airport Elevation : 219 ft
- IATA code : DNR
- Download approach charts


LFRD - Dinard

CURRENT METAR :
  • 211200Z AUTO 01014KT 340V040 9999 FEW028 17/10 Q1026 TEMPO 36015G25KT

EXPIRED METARs :
  • 211130Z AUTO 36014KT 9999 FEW026 17/10 Q1026 TEMPO 36015G25KT
  • 211100Z AUTO 36015KT CAVOK 16/10 Q1026 TEMPO 36015G25KT
  • 211030Z AUTO 36017KT 9999 SCT024 16/09 Q1026 TEMPO 36015G25KT
  • 211000Z AUTO 01015KT 9999 SCT025 16/11 Q1025 TEMPO 36015G25KT
  • 210930Z AUTO 02015KT 350V050 9999 FEW026 16/09 Q1025 TEMPO 36015G25KT

TAF TAF LFRD
Valid from the 21 at 12:00 until the 22 at 12:00 UTC


211100Z 2112/2212 36015KT CAVOK
TEMPO 2112/2118 36015G25KT
BECMG 2200/2203 02005KT
BECMG 2203/2206 07006KT
BECMG 2209/2212 01010KT
ATIS : +33 2 99 16 81 50
No reported NOTAMs for that airfield.



MET'MAP, your aeronautical weather chart ! - Copyright ORBIFLY December 2007 - Disclaimer

ORBIFLY MET'MAP TEAM :

Programming & Development : Alexandra Zaïnal
Concept & Development : Baudouin d'Aumeries
Co-Development & Prog : Marc-Olivier Méhu
Technical & hardware support : Manuel Goepfert

Contact : metmap@orbifly.com




SOURCES & CREDITS :

   NOAA